Crestline Heights, Alabama
Current Conditions -  °F | °C
As of 9:53 PM on Sunday 21 Dec 2014 (Local Time) from KBHM Reporting Station
Overcast Overcast  
Wind Chill: 51°   Ceiling: 1200
Heat Index: 51°   Visibility: 10mi
Dew Point: 46°   Wind: 6mph
Humidity: 83%   Direction: 90°E
Pressure: 30.07"   Gusts: NA
Location:  33.5082°N, 86.7399°W
Report Text: KBHM 220353Z 09005KT 10SM OVC012 11/08 A3007 RMK AO2 SLP181 T01060078
Loading
Personal Weather Stations






























Interactive Weather Map New forecast layout! Learn more

10-Day Weather Forecast

Advertisements
Track Severe Weather on mobile